Time;durP1;ratioP1;P1;durP2;ratioP2;P2;SDS_P1;SDS_P2;PMS_P1;PMS_P2;Temp;Humidity;BMP_temperature;BMP_pressure;BME280_temperature;BME280_humidity;BME280_pressure;Samples;Min_cycle;Max_cycle;Signal;HPM_P1;HPM_P2
2021/01/09 00:02:03;;;;;;;91.32;37.20;;;;;;;-3.38;100.00;102163.63;5225194;28;20393;-67
2021/01/09 00:04:34;;;;;;;103.18;38.03;;;;;;;-3.37;100.00;102164.47;5225616;28;20032;-67
2021/01/09 00:07:04;;;;;;;95.38;37.95;;;;;;;-3.39;100.00;102172.41;5224281;28;20021;-68
2021/01/09 00:09:37;;;;;;;97.50;38.97;;;;;;;-3.40;100.00;102170.69;5225021;28;20036;-67
2021/01/09 00:12:11;;;;;;;112.82;39.40;;;;;;;-3.41;100.00;102170.75;5225311;28;20109;-67
2021/01/09 00:14:42;;;;;;;135.73;38.90;;;;;;;-3.43;100.00;102173.41;5224611;28;20033;-67
2021/01/09 00:17:12;;;;;;;108.10;34.70;;;;;;;-3.44;100.00;102178.69;5223372;28;20076;-68
2021/01/09 00:19:43;;;;;;;88.25;32.08;;;;;;;-3.47;100.00;102174.38;5224856;28;20393;-67
2021/01/09 00:22:13;;;;;;;97.05;32.88;;;;;;;-3.48;100.00;102179.69;5224684;28;20028;-67
2021/01/09 00:24:44;;;;;;;94.72;32.90;;;;;;;-3.48;100.00;102183.16;5225052;28;20031;-67
2021/01/09 00:27:15;;;;;;;101.35;35.58;;;;;;;-3.49;100.00;102180.59;5224150;28;20124;-67
2021/01/09 00:29:45;;;;;;;98.97;35.40;;;;;;;-3.50;100.00;102184.97;5225096;28;20151;-67
2021/01/09 00:32:16;;;;;;;97.13;35.25;;;;;;;-3.53;100.00;102185.06;5224357;28;20454;-67
2021/01/09 00:34:46;;;;;;;82.93;34.10;;;;;;;-3.53;100.00;102186.81;5224375;28;20091;-67
2021/01/09 00:37:17;;;;;;;92.85;35.00;;;;;;;-3.55;100.00;102186.03;5223867;28;20016;-67
2021/01/09 00:39:47;;;;;;;96.25;36.83;;;;;;;-3.58;100.00;102188.72;5224761;28;20021;-68
2021/01/09 00:42:18;;;;;;;80.78;30.77;;;;;;;-3.58;100.00;102186.09;5221394;28;20037;-67
2021/01/09 00:44:48;;;;;;;76.55;32.22;;;;;;;-3.58;100.00;102186.09;5217385;28;20020;-67
2021/01/09 00:47:19;;;;;;;91.88;30.02;;;;;;;-3.60;100.00;102190.53;5224251;28;20021;-68
2021/01/09 00:49:49;;;;;;;134.70;32.13;;;;;;;-3.57;100.00;102187.81;5221295;28;20017;-68
2021/01/09 00:52:20;;;;;;;91.25;31.02;;;;;;;-3.56;100.00;102193.03;5224159;28;20021;-68
2021/01/09 00:54:50;;;;;;;96.60;30.45;;;;;;;-3.56;100.00;102190.41;5223952;28;20112;-67
2021/01/09 00:57:21;;;;;;;85.68;28.65;;;;;;;-3.56;100.00;102195.66;5224004;28;20104;-67
2021/01/09 00:59:51;;;;;;;104.68;32.70;;;;;;;-3.55;100.00;102197.38;5227118;28;20025;-68
2021/01/09 01:02:22;;;;;;;116.93;31.95;;;;;;;-3.54;100.00;102199.09;5222750;28;20104;-68
2021/01/09 01:04:52;;;;;;;98.63;32.75;;;;;;;-3.54;100.00;102192.97;5223671;28;20037;-67
2021/01/09 01:07:23;;;;;;;105.55;33.80;;;;;;;-3.53;100.00;102195.56;5223617;28;20029;-68
2021/01/09 01:09:53;;;;;;;109.22;33.80;;;;;;;-3.52;100.00;102193.78;5223753;28;20556;-68
2021/01/09 01:12:23;;;;;;;124.28;32.53;;;;;;;-3.53;100.00;102198.19;5224329;28;20431;-68
2021/01/09 01:14:54;;;;;;;149.85;35.15;;;;;;;-3.53;100.00;102198.19;5215052;28;20051;-67
2021/01/09 01:17:24;;;;;;;134.25;36.60;;;;;;;-3.52;100.00;102201.66;5223525;28;20457;-68
2021/01/09 01:19:55;;;;;;;87.55;32.05;;;;;;;-3.51;100.00;102200.78;5222689;28;20024;-68
2021/01/09 01:22:25;;;;;;;93.82;31.55;;;;;;;-3.54;100.00;102198.22;5221554;28;20037;-67
2021/01/09 01:24:56;;;;;;;88.70;29.60;;;;;;;-3.58;100.00;102202.69;5222299;28;20049;-69
2021/01/09 01:27:26;;;;;;;92.20;31.30;;;;;;;-3.62;100.00;102201.06;5221429;28;20028;-68
2021/01/09 01:29:57;;;;;;;92.43;31.48;;;;;;;-3.64;100.00;102210.75;5222575;28;20025;-68
2021/01/09 01:32:27;;;;;;;78.05;28.02;;;;;;;-3.65;100.00;102201.16;5221888;28;20187;-68
2021/01/09 01:34:58;;;;;;;81.05;29.90;;;;;;;-3.65;100.00;102203.78;5222148;28;20028;-68
2021/01/09 01:37:28;;;;;;;80.53;29.45;;;;;;;-3.65;100.00;102211.66;5221972;28;20020;-68
2021/01/09 01:39:58;;;;;;;76.78;27.27;;;;;;;-3.68;100.00;102212.56;5222509;28;20025;-68
2021/01/09 01:42:29;;;;;;;88.30;31.23;;;;;;;-3.72;100.00;102212.69;5221036;28;20358;-68
2021/01/09 01:44:59;;;;;;;82.57;28.13;;;;;;;-3.78;100.00;102212.88;5221926;28;20028;-68
2021/01/09 01:47:32;;;;;;;84.97;30.00;;;;;;;-3.82;100.00;102208.59;5220176;28;20025;-69
2021/01/09 01:50:04;;;;;;;95.10;30.83;;;;;;;-3.84;100.00;102213.91;5210476;28;20025;-69
2021/01/09 01:52:34;;;;;;;74.07;25.30;;;;;;;-3.82;100.00;102216.47;5221625;28;20017;-69
2021/01/09 01:55:06;;;;;;;76.57;27.58;;;;;;;-3.82;100.00;102219.94;5221965;28;20028;-68
2021/01/09 01:57:36;;;;;;;72.85;24.58;;;;;;;-3.84;100.00;102223.53;5223647;28;20107;-69
2021/01/09 02:00:07;;;;;;;70.80;27.33;;;;;;;-3.85;100.00;102225.28;5227820;28;20129;-68
2021/01/09 02:02:38;;;;;;;67.82;25.67;;;;;;;-3.84;100.00;102220.91;5222076;28;20550;-68
2021/01/09 02:05:10;;;;;;;64.35;24.75;;;;;;;-3.81;100.00;102228.72;5223064;28;20037;-69
2021/01/09 02:07:42;;;;;;;80.47;28.67;;;;;;;-3.79;100.00;102221.66;5221035;28;20033;-69
2021/01/09 02:10:14;;;;;;;84.57;28.73;;;;;;;-3.81;100.00;102223.47;5222149;28;20353;-69
2021/01/09 02:12:54;;;;;;;79.00;28.33;;;;;;;-3.78;100.00;102225.97;5222319;28;20425;-69
2021/01/09 02:15:25;;;;;;;91.45;27.50;;;;;;;-3.76;100.00;102232.06;5222744;28;20023;-69
2021/01/09 02:17:57;;;;;;;91.35;30.20;;;;;;;-3.75;100.00;102223.28;5221997;28;20017;-68
2021/01/09 02:20:29;;;;;;;76.82;26.75;;;;;;;-3.76;100.00;102226.81;5222699;28;20029;-68
2021/01/09 02:23:01;;;;;;;80.78;25.55;;;;;;;-3.76;100.00;102226.81;5221937;28;20326;-68
2021/01/09 02:25:32;;;;;;;80.47;26.67;;;;;;;-3.76;100.00;102224.19;5222496;28;20024;-68
2021/01/09 02:28:02;;;;;;;99.60;27.15;;;;;;;-3.79;100.00;102222.50;5221814;28;20079;-68
2021/01/09 02:30:35;;;;;;;121.03;28.80;;;;;;;-3.78;100.00;102228.59;5222237;28;20036;-69
2021/01/09 02:33:08;;;;;;;158.77;32.22;;;;;;;-3.77;100.00;102228.56;5222041;28;20025;-68
2021/01/09 02:35:39;;;;;;;101.45;29.98;;;;;;;-3.74;100.00;102225.00;5222282;28;20033;-68
2021/01/09 02:38:12;;;;;;;112.85;30.80;;;;;;;-3.71;100.00;102230.19;5221835;28;20417;-68
2021/01/09 02:40:44;;;;;;;105.15;28.52;;;;;;;-3.69;100.00;102226.59;5222402;28;20397;-68
2021/01/09 02:43:25;;;;;;;111.97;30.67;;;;;;;-3.66;100.00;102228.28;5215184;28;20507;-68
2021/01/09 02:45:56;;;;;;;107.82;30.13;;;;;;;-3.63;100.00;102228.19;5221602;28;20035;-68
2021/01/09 02:48:27;;;;;;;154.20;32.20;;;;;;;-3.63;100.00;102232.59;5217854;28;20275;-68
2021/01/09 02:50:57;;;;;;;218.45;37.47;;;;;;;-3.67;100.00;102230.03;5221621;28;20461;-70
2021/01/09 02:53:28;;;;;;;101.18;28.98;;;;;;;-3.67;100.00;102239.66;5220872;28;20094;-68
2021/01/09 02:55:58;;;;;;;90.72;26.25;;;;;;;-3.72;100.00;102244.16;5221431;28;20021;-68
2021/01/09 02:58:29;;;;;;;89.85;25.92;;;;;;;-3.77;100.00;102249.53;5225427;28;20017;-69
2021/01/09 03:01:00;;;;;;;71.32;24.95;;;;;;;-3.80;100.00;102251.41;5218551;28;20109;-68
2021/01/09 03:03:31;;;;;;;90.78;25.25;;;;;;;-3.88;100.00;102251.59;5212936;28;20408;-68
2021/01/09 03:06:02;;;;;;;73.53;24.73;;;;;;;-3.92;100.00;102256.06;5221482;28;20036;-68
2021/01/09 03:08:32;;;;;;;96.65;28.20;;;;;;;-3.98;100.00;102261.44;5220624;28;20033;-68
2021/01/09 03:11:03;;;;;;;78.53;26.27;;;;;;;-4.00;100.00;102258.00;5221158;28;20059;-69
2021/01/09 03:13:34;;;;;;;255.23;37.97;;;;;;;-4.02;100.00;102258.94;5222738;28;20020;-68
2021/01/09 03:16:05;;;;;;;133.25;28.67;;;;;;;-4.01;100.00;102264.16;5224812;28;20048;-68
2021/01/09 03:18:35;;;;;;;125.43;28.95;;;;;;;-3.98;100.00;102257.97;5225067;28;20017;-68
2021/01/09 03:21:06;;;;;;;94.40;28.38;;;;;;;-3.95;100.00;102253.50;5224921;28;20370;-69
2021/01/09 03:23:37;;;;;;;110.15;29.50;;;;;;;-3.89;100.00;102254.25;5225367;28;20051;-68
2021/01/09 03:26:07;;;;;;;95.07;30.27;;;;;;;-3.89;100.00;102249.00;5225031;28;20021;-70
2021/01/09 03:28:38;;;;;;;86.35;26.27;;;;;;;-3.87;100.00;102252.44;5225076;28;20543;-68
2021/01/09 03:31:08;;;;;;;92.63;27.42;;;;;;;-3.88;100.00;102245.47;5225011;28;20029;-68
2021/01/09 03:33:39;;;;;;;91.80;26.45;;;;;;;-3.90;100.00;102253.41;5225085;28;20033;-68
2021/01/09 03:36:10;;;;;;;94.18;25.77;;;;;;;-3.93;100.00;102256.09;5224752;28;20032;-68
2021/01/09 03:38:40;;;;;;;93.25;26.67;;;;;;;-3.95;100.00;102253.50;5224228;28;20017;-70
2021/01/09 03:41:10;;;;;;;88.40;25.48;;;;;;;-3.98;100.00;102257.97;5224837;28;20135;-68
2021/01/09 03:43:41;;;;;;;92.78;25.77;;;;;;;-3.99;100.00;102259.72;5224426;28;20108;-68
2021/01/09 03:46:11;;;;;;;114.57;28.85;;;;;;;-4.02;100.00;102257.16;5223817;28;20374;-68
2021/01/09 03:48:42;;;;;;;82.13;26.77;;;;;;;-4.05;100.00;102257.25;5224413;28;20021;-68
2021/01/09 03:51:12;;;;;;;94.68;28.60;;;;;;;-4.05;100.00;102257.25;5219202;28;20093;-70
2021/01/09 03:53:43;;;;;;;82.80;26.15;;;;;;;-4.03;100.00;102259.84;5224704;28;20273;-68
2021/01/09 03:56:13;;;;;;;74.85;27.23;;;;;;;-4.02;100.00;102251.94;5224127;28;20044;-68
2021/01/09 03:58:44;;;;;;;93.13;28.20;;;;;;;-3.97;100.00;102257.06;5223092;28;20041;-68
2021/01/09 04:01:14;;;;;;;79.95;26.45;;;;;;;-3.96;100.00;102257.03;5220751;28;20493;-69
2021/01/09 04:03:44;;;;;;;84.60;26.08;;;;;;;-3.95;100.00;102250.88;5214027;28;20017;-70
2021/01/09 04:06:15;;;;;;;73.47;25.10;;;;;;;-3.93;100.00;102261.31;5223742;28;20039;-69
2021/01/09 04:08:45;;;;;;;108.50;27.23;;;;;;;-3.92;100.00;102263.94;5224201;28;20033;-68
2021/01/09 04:11:16;;;;;;;176.07;29.45;;;;;;;-3.92;100.00;102257.81;5223919;28;20114;-68
2021/01/09 04:13:46;;;;;;;109.35;29.02;;;;;;;-3.90;100.00;102258.63;5224395;28;20099;-68
2021/01/09 04:16:17;;;;;;;90.10;27.40;;;;;;;-3.87;100.00;102260.31;5223338;28;20487;-68
2021/01/09 04:18:47;;;;;;;105.70;27.48;;;;;;;-3.86;100.00;102257.66;5224354;28;20031;-68
2021/01/09 04:21:17;;;;;;;101.65;25.55;;;;;;;-3.89;100.00;102255.13;5224208;28;20425;-68
2021/01/09 04:23:48;;;;;;;116.63;27.02;;;;;;;-3.96;100.00;102254.41;5223825;28;20504;-69
2021/01/09 04:26:18;;;;;;;146.80;30.73;;;;;;;-3.95;100.00;102250.88;5223031;28;20035;-68
2021/01/09 04:28:49;;;;;;;124.30;28.95;;;;;;;-3.94;100.00;102262.25;5224066;28;20040;-68
2021/01/09 04:31:19;;;;;;;87.60;26.48;;;;;;;-3.95;100.00;102260.53;5223512;28;20017;-70
2021/01/09 04:33:49;;;;;;;72.20;24.70;;;;;;;-3.99;100.00;102261.50;5222651;28;20409;-69
2021/01/09 04:36:20;;;;;;;81.90;26.02;;;;;;;-4.09;100.00;102260.00;5222573;28;20079;-68
2021/01/09 04:38:50;;;;;;;87.85;25.33;;;;;;;-4.18;100.00;102261.06;5223624;28;20295;-68
2021/01/09 04:41:21;;;;;;;75.28;24.27;;;;;;;-4.22;100.00;102270.81;5223613;28;20052;-68
2021/01/09 04:43:51;;;;;;;115.53;28.58;;;;;;;-4.25;100.00;102270.84;5222478;28;20029;-69
2021/01/09 04:46:25;;;;;;;86.20;26.02;;;;;;;-4.25;100.00;102268.25;5222286;28;20453;-69
2021/01/09 04:48:57;;;;;;;107.10;27.88;;;;;;;-4.23;100.00;102269.06;5223300;28;20024;-69
2021/01/09 04:51:28;;;;;;;139.50;30.05;;;;;;;-4.20;100.00;102274.22;5221147;28;20095;-68
2021/01/09 04:54:00;;;;;;;131.90;28.02;;;;;;;-4.17;100.00;102274.16;5223133;28;20021;-68
2021/01/09 04:56:31;;;;;;;88.20;27.05;;;;;;;-4.14;100.00;102256.63;5222577;28;20503;-68
2021/01/09 04:59:04;;;;;;;148.05;29.63;;;;;;;-4.13;100.00;102271.44;5230171;28;20029;-68
2021/01/09 05:01:35;;;;;;;116.82;27.90;;;;;;;-4.13;100.00;102268.84;5223039;28;20118;-69
2021/01/09 05:04:05;;;;;;;125.97;28.65;;;;;;;-4.14;100.00;102267.97;5220644;28;20071;-68
2021/01/09 05:06:38;;;;;;;75.45;24.10;;;;;;;-4.17;100.00;102278.53;5222663;28;20025;-69
2021/01/09 05:09:09;;;;;;;76.38;26.88;;;;;;;-4.17;100.00;102268.94;5224031;28;20032;-69
2021/01/09 05:11:42;;;;;;;67.10;24.02;;;;;;;-4.15;100.00;102268.88;5222895;28;20021;-70
2021/01/09 05:14:12;;;;;;;77.60;23.73;;;;;;;-4.14;100.00;102272.34;5223684;28;20028;-69
2021/01/09 05:16:43;;;;;;;74.25;25.17;;;;;;;-4.10;100.00;102269.63;5223082;28;20039;-68
2021/01/09 05:19:13;;;;;;;107.47;25.00;;;;;;;-4.06;100.00;102270.41;5223436;28;20472;-68
2021/01/09 05:21:45;;;;;;;81.93;23.02;;;;;;;-4.07;100.00;102277.41;5223530;28;20432;-69
2021/01/09 05:24:17;;;;;;;61.47;21.98;;;;;;;-4.03;100.00;102278.19;5223345;28;20292;-68
2021/01/09 05:26:47;;;;;;;73.18;23.75;;;;;;;-4.01;100.00;102277.28;5223233;28;20025;-68
2021/01/09 05:29:19;;;;;;;70.53;23.20;;;;;;;-3.98;100.00;102292.91;5223753;28;20021;-70
2021/01/09 05:31:49;;;;;;;75.30;25.00;;;;;;;-3.96;100.00;102301.63;5223678;28;20031;-69
2021/01/09 05:34:20;;;;;;;75.60;23.83;;;;;;;-3.97;100.00;102299.88;5222605;28;20032;-69
2021/01/09 05:36:50;;;;;;;78.68;23.77;;;;;;;-3.88;100.00;102297.91;5221598;28;20028;-69
2021/01/09 05:39:21;;;;;;;79.18;22.88;;;;;;;-3.82;100.00;102298.63;5223501;28;20029;-69
2021/01/09 05:41:51;;;;;;;73.57;23.55;;;;;;;-3.75;100.00;102308.06;5222738;28;20543;-69
2021/01/09 05:44:22;;;;;;;71.13;23.02;;;;;;;-3.71;100.00;102312.34;5214033;28;20489;-69
2021/01/09 05:46:53;;;;;;;77.20;25.42;;;;;;;-3.66;100.00;102309.59;5221829;28;20033;-70
2021/01/09 05:49:28;;;;;;;74.28;26.08;;;;;;;-3.65;100.00;102311.31;5222452;28;20021;-69
2021/01/09 05:52:00;;;;;;;88.57;25.23;;;;;;;-3.62;100.00;102313.84;5220241;28;20103;-69
2021/01/09 05:54:44;;;;;;;73.93;26.50;;;;;;;-3.59;100.00;102312.94;5222961;28;20043;-69
2021/01/09 05:57:16;;;;;;;66.20;25.20;;;;;;;-3.60;100.00;102314.69;5221501;28;20112;-69
2021/01/09 05:59:47;;;;;;;86.28;25.60;;;;;;;-3.61;100.00;102314.72;5225894;28;20389;-69
2021/01/09 06:02:17;;;;;;;81.22;26.75;;;;;;;-3.63;100.00;102319.16;5223079;28;20029;-69
2021/01/09 06:04:48;;;;;;;80.97;26.08;;;;;;;-3.68;100.00;102321.88;5222174;28;20025;-69
2021/01/09 06:07:21;;;;;;;86.60;26.30;;;;;;;-3.70;100.00;102323.69;5222492;28;20385;-69
2021/01/09 06:10:03;;;;;;;81.60;26.10;;;;;;;-3.72;100.00;102321.09;5222313;28;20025;-70
2021/01/09 06:12:36;;;;;;;80.57;27.80;;;;;;;-3.71;100.00;102330.72;5222644;28;20572;-69
2021/01/09 06:15:13;;;;;;;80.63;25.90;;;;;;;-3.68;100.00;102321.88;5222417;28;20029;-70
2021/01/09 06:17:44;;;;;;;78.38;26.23;;;;;;;-3.66;100.00;102323.59;5221564;28;20059;-69
2021/01/09 06:20:15;;;;;;;62.38;23.48;;;;;;;-3.68;100.00;102319.25;5222854;28;20025;-69
2021/01/09 06:22:45;;;;;;;76.43;27.88;;;;;;;-3.68;100.00;102321.88;5223178;28;20021;-69
2021/01/09 06:25:17;;;;;;;88.38;27.00;;;;;;;-3.70;100.00;102327.19;5223434;28;20070;-69
2021/01/09 06:27:52;;;;;;;110.63;26.70;;;;;;;-3.73;100.00;102326.38;5222179;28;20037;-69
2021/01/09 06:30:24;;;;;;;70.00;23.35;;;;;;;-3.77;100.00;102320.34;5223293;28;20024;-69
2021/01/09 06:32:58;;;;;;;98.72;25.63;;;;;;;-3.79;100.00;102330.03;5222104;28;20029;-69
2021/01/09 06:35:33;;;;;;;131.32;26.35;;;;;;;-3.81;100.00;102334.47;5222436;28;20063;-69
2021/01/09 06:38:03;;;;;;;99.03;24.42;;;;;;;-3.81;100.00;102336.22;5222373;28;20144;-68
2021/01/09 06:40:34;;;;;;;114.57;26.50;;;;;;;-3.83;100.00;102330.13;5226855;28;20033;-70
2021/01/09 06:43:04;;;;;;;102.97;25.58;;;;;;;-3.86;100.00;102341.59;5217256;28;20028;-69
2021/01/09 06:45:35;;;;;;;92.55;27.90;;;;;;;-3.88;100.00;102338.13;5222384;28;20058;-69
2021/01/09 06:48:06;;;;;;;85.18;27.52;;;;;;;-3.88;100.00;102348.59;5222697;28;20033;-69
2021/01/09 06:50:36;;;;;;;94.80;24.67;;;;;;;-3.94;100.00;102354.00;5222514;28;20477;-70
2021/01/09 06:53:13;;;;;;;97.18;24.98;;;;;;;-3.93;100.00;102356.56;5227362;28;20492;-69
2021/01/09 06:55:51;;;;;;;121.47;26.20;;;;;;;-3.94;100.00;102357.47;5226456;28;20053;-70
2021/01/09 06:58:25;;;;;;;117.03;27.25;;;;;;;-4.01;100.00;102361.16;5226590;28;20013;-70
2021/01/09 07:01:18;;;;;;;111.97;26.67;;;;;;;-4.01;100.00;102358.53;5226692;28;20063;-69
2021/01/09 07:03:48;;;;;;;107.82;25.25;;;;;;;-3.97;100.00;102359.31;5226712;28;20127;-69
2021/01/09 07:06:59;;;;;;;135.80;27.60;;;;;;;-4.03;100.00;102360.31;5226355;28;20131;-69
2021/01/09 07:09:32;;;;;;;125.57;26.92;;;;;;;-4.04;100.00;102366.47;5226073;28;20025;-69
2021/01/09 07:12:03;;;;;;;97.15;25.98;;;;;;;-4.02;100.00;102374.28;5227034;28;20021;-70
2021/01/09 07:14:36;;;;;;;77.22;25.98;;;;;;;-4.00;100.00;102370.75;5226165;28;20195;-69
2021/01/09 07:17:10;;;;;;;86.38;27.27;;;;;;;-3.99;100.00;102377.69;5226308;28;20385;-69
2021/01/09 07:19:42;;;;;;;90.03;26.97;;;;;;;-3.97;100.00;102375.88;5226550;28;20109;-69
2021/01/09 07:22:18;;;;;;;118.63;27.38;;;;;;;-3.97;100.00;102380.28;5226733;28;20648;-70
2021/01/09 07:24:50;;;;;;;110.50;24.23;;;;;;;-3.97;100.00;102381.13;5217935;28;20569;-70
2021/01/09 07:27:22;;;;;;;66.50;21.38;;;;;;;-3.92;100.00;102389.78;5225643;28;20037;-70
2021/01/09 07:29:56;;;;;;;77.00;21.98;;;;;;;-3.92;100.00;102389.78;5226244;28;20025;-70
2021/01/09 07:32:40;;;;;;;80.32;23.95;;;;;;;-3.91;100.00;102388.88;5227373;28;20029;-70
2021/01/09 07:35:11;;;;;;;90.90;25.17;;;;;;;-3.88;100.00;102390.56;5226219;28;20025;-70
2021/01/09 07:37:43;;;;;;;82.03;24.33;;;;;;;-3.83;100.00;102385.19;5226091;28;20442;-69
2021/01/09 07:40:19;;;;;;;82.45;24.23;;;;;;;-3.77;100.00;102390.28;5228734;28;20052;-70
2021/01/09 07:42:50;;;;;;;88.75;22.65;;;;;;;-3.74;100.00;102396.34;5226248;28;20032;-70
2021/01/09 07:45:22;;;;;;;72.25;22.05;;;;;;;-3.74;100.00;102398.09;5225864;28;20032;-70
2021/01/09 07:47:52;;;;;;;77.18;23.25;;;;;;;-3.70;100.00;102394.50;5225092;28;20036;-70
2021/01/09 07:50:23;;;;;;;69.78;23.27;;;;;;;-3.66;100.00;102401.41;5223411;28;20020;-70
2021/01/09 07:53:06;;;;;;;105.38;28.27;;;;;;;-3.63;100.00;102397.84;5225156;28;20235;-70
2021/01/09 07:55:45;;;;;;;90.43;26.25;;;;;;;-3.63;100.00;102401.31;5225783;28;20029;-70
2021/01/09 07:58:16;;;;;;;94.38;24.15;;;;;;;-3.62;100.00;102405.66;5225265;28;20017;-70
2021/01/09 08:00:46;;;;;;;139.05;24.63;;;;;;;-3.59;100.00;102400.34;5225237;28;20079;-70
2021/01/09 08:03:18;;;;;;;88.80;23.33;;;;;;;-3.58;100.00;102403.84;5225998;28;20032;-71
2021/01/09 08:05:48;;;;;;;63.80;19.52;;;;;;;-3.59;100.00;102402.97;5225412;28;20079;-70
2021/01/09 08:08:19;;;;;;;71.45;21.67;;;;;;;-3.64;100.00;102404.84;5224993;28;20053;-70
2021/01/09 08:10:49;;;;;;;77.45;18.65;;;;;;;-3.68;100.00;102406.69;5225106;28;20035;-70
2021/01/09 08:13:21;;;;;;;67.15;20.13;;;;;;;-3.70;100.00;102410.25;5219494;28;20062;-71
2021/01/09 08:15:53;;;;;;;57.72;19.73;;;;;;;-3.69;100.00;102410.19;5218846;28;20104;-72
2021/01/09 08:18:24;;;;;;;57.55;18.38;;;;;;;-3.68;100.00;102416.31;5223082;28;20032;-70
2021/01/09 08:20:54;;;;;;;48.35;18.45;;;;;;;-3.66;100.00;102412.78;5223309;28;20025;-70
2021/01/09 08:23:25;;;;;;;62.10;18.25;;;;;;;-3.65;100.00;102424.97;5222176;28;20462;-70
2021/01/09 08:25:55;;;;;;;59.42;19.10;;;;;;;-3.61;100.00;102419.63;5222534;28;20021;-70
2021/01/09 08:28:27;;;;;;;58.35;19.38;;;;;;;-3.59;100.00;102417.84;5222031;28;20067;-70
2021/01/09 08:30:59;;;;;;;52.08;18.00;;;;;;;-3.61;100.00;102419.63;5222663;28;20095;-70
2021/01/09 08:33:31;;;;;;;54.08;18.23;;;;;;;-3.59;100.00;102429.22;5222207;28;20433;-70
2021/01/09 08:36:03;;;;;;;45.10;17.45;;;;;;;-3.55;100.00;102427.38;5222298;28;20024;-71
2021/01/09 08:38:34;;;;;;;51.45;18.88;;;;;;;-3.54;100.00;102432.59;5221540;28;20013;-71
2021/01/09 08:41:04;;;;;;;54.15;18.05;;;;;;;-3.53;100.00;102442.16;5222705;28;20028;-70
2021/01/09 08:43:35;;;;;;;63.90;21.77;;;;;;;-3.49;100.00;102441.22;5222053;28;20037;-70
2021/01/09 08:46:05;;;;;;;87.45;26.65;;;;;;;-3.45;100.00;102445.47;5220862;28;20393;-70
2021/01/09 08:48:36;;;;;;;67.22;26.05;;;;;;;-3.42;100.00;102439.28;5222248;28;20100;-70
2021/01/09 08:51:09;;;;;;;71.05;24.90;;;;;;;-3.41;100.00;102444.50;5219273;28;20033;-70
2021/01/09 08:53:50;;;;;;;72.18;24.13;;;;;;;-3.34;100.00;102444.34;5221887;28;20024;-71
2021/01/09 08:56:22;;;;;;;71.85;24.42;;;;;;;-3.29;100.00;102452.97;5221725;28;20031;-71
2021/01/09 08:58:52;;;;;;;73.15;24.48;;;;;;;-3.24;100.00;102443.22;5230674;28;20021;-70
2021/01/09 09:01:26;;;;;;;61.03;21.88;;;;;;;-3.16;100.00;102455.25;5223501;28;20032;-70
2021/01/09 09:04:01;;;;;;;68.20;23.80;;;;;;;-3.13;100.00;102454.31;5222321;28;20024;-70
2021/01/09 09:06:35;;;;;;;108.32;30.70;;;;;;;-3.07;100.00;102456.78;5221778;28;20047;-70
2021/01/09 09:09:05;;;;;;;80.95;23.25;;;;;;;-3.04;100.00;102454.06;5222068;28;20052;-70
2021/01/09 09:11:36;;;;;;;75.00;23.33;;;;;;;-2.97;100.00;102454.78;5221450;28;20552;-70
2021/01/09 09:14:09;;;;;;;63.13;21.80;;;;;;;-2.92;100.00;102458.13;5221165;28;20029;-70
2021/01/09 09:16:40;;;;;;;63.15;19.70;;;;;;;-2.92;100.00;102459.00;5217881;28;20028;-70
2021/01/09 09:19:14;;;;;;;58.45;18.40;;;;;;;-2.84;100.00;102466.69;5222313;28;20458;-70
2021/01/09 09:21:47;;;;;;;69.47;20.85;;;;;;;-2.82;100.00;102469.25;5215506;28;20036;-70
2021/01/09 09:24:18;;;;;;;58.65;20.08;;;;;;;-2.76;100.00;102466.47;5221070;28;20025;-70
2021/01/09 09:26:48;;;;;;;60.35;18.42;;;;;;;-2.69;100.00;102466.28;5220697;28;20044;-70
2021/01/09 09:29:19;;;;;;;75.22;23.83;;;;;;;-2.69;100.00;102478.53;5221511;28;20021;-71
2021/01/09 09:31:49;;;;;;;61.53;21.15;;;;;;;-2.68;100.00;102477.63;5220736;28;20032;-71
2021/01/09 09:34:27;;;;;;;65.20;20.63;;;;;;;-2.64;100.00;102484.53;5220209;28;20508;-70
2021/01/09 09:36:59;;;;;;;93.68;25.67;;;;;;;-2.58;100.00;102476.47;5220088;28;20078;-70
2021/01/09 09:39:34;;;;;;;103.07;25.00;;;;;;;-2.54;100.00;102482.53;5219385;28;20059;-70
2021/01/09 09:42:04;;;;;;;71.47;23.60;;;;;;;-2.50;100.00;102486.78;5220039;28;20074;-70
2021/01/09 09:44:38;;;;;;;64.35;22.02;;;;;;;-2.43;100.00;102488.34;5212020;28;20037;-70
2021/01/09 09:47:11;;;;;;;75.80;24.45;;;;;;;-2.43;100.00;102486.56;5219768;28;20061;-70
2021/01/09 09:49:43;;;;;;;78.85;23.50;;;;;;;-2.40;100.00;102490.91;5220105;28;20013;-70
2021/01/09 09:52:21;;;;;;;146.35;23.98;;;;;;;-2.45;100.00;102491.03;5221338;28;20568;-70
2021/01/09 09:55:05;;;;;;;65.80;23.08;;;;;;;-2.38;100.00;102495.19;5220340;28;20029;-70
2021/01/09 09:57:36;;;;;;;66.88;20.88;;;;;;;-2.36;100.00;102488.13;5215678;28;20027;-70
2021/01/09 10:00:08;;;;;;;70.10;23.38;;;;;;;-2.38;100.00;102495.19;5220552;28;20025;-70
2021/01/09 10:02:54;;;;;;;68.70;22.85;;;;;;;-2.34;100.00;102498.59;5220945;28;20037;-70
2021/01/09 10:05:25;;;;;;;69.15;24.83;;;;;;;-2.31;100.00;102500.25;5217933;28;20032;-70
2021/01/09 10:08:09;;;;;;;66.03;22.42;;;;;;;-2.22;100.00;102500.88;5218320;28;20033;-71
2021/01/09 10:10:41;;;;;;;71.07;21.33;;;;;;;-2.22;100.00;102500.88;5220498;28;20393;-70
2021/01/09 10:13:11;;;;;;;83.97;23.67;;;;;;;-2.15;100.00;102499.81;5220720;28;20037;-70
2021/01/09 10:15:42;;;;;;;67.40;22.80;;;;;;;-2.11;100.00;102504.06;5219622;28;20119;-70
2021/01/09 10:18:12;;;;;;;72.05;24.77;;;;;;;-2.13;100.00;102497.13;5219743;28;20115;-69
2021/01/09 10:20:43;;;;;;;67.60;23.02;;;;;;;-2.11;100.00;102505.81;5220397;28;20033;-70
2021/01/09 10:23:13;;;;;;;80.10;24.80;;;;;;;-2.05;100.00;102504.81;5220582;28;20029;-70
2021/01/09 10:25:44;;;;;;;86.72;23.60;;;;;;;-2.06;100.00;102498.66;5220271;28;20053;-70
2021/01/09 10:28:18;;;;;;;77.75;27.20;;;;;;;-2.05;100.00;102505.66;5219461;28;20040;-69
2021/01/09 10:30:48;;;;;;;74.50;26.02;;;;;;;-2.00;100.00;102502.91;5219193;28;20025;-70
2021/01/09 10:33:19;;;;;;;95.55;27.13;;;;;;;-1.94;100.00;102502.72;5219635;28;20035;-70
2021/01/09 10:35:49;;;;;;;124.85;30.88;;;;;;;-1.85;100.00;102507.69;5219373;28;20051;-70
2021/01/09 10:38:20;;;;;;;76.10;29.50;;;;;;;-1.73;100.00;102495.94;5219604;28;20113;-70
2021/01/09 10:40:50;;;;;;;73.22;26.98;;;;;;;-1.67;100.00;102493.97;5220129;28;20029;-70
2021/01/09 10:43:21;;;;;;;137.98;28.38;;;;;;;-1.64;100.00;102493.03;5220358;28;20035;-70
2021/01/09 10:45:51;;;;;;;96.30;28.98;;;;;;;-1.60;100.00;102492.88;5218815;28;20220;-70
2021/01/09 10:48:22;;;;;;;165.07;29.98;;;;;;;-1.58;100.00;102493.69;5210055;28;20087;-70
2021/01/09 10:50:52;;;;;;;99.10;28.85;;;;;;;-1.52;100.00;102490.00;5220120;28;20071;-69
2021/01/09 10:53:23;;;;;;;120.90;30.73;;;;;;;-1.41;100.00;102487.00;5220548;28;20059;-70
2021/01/09 10:55:56;;;;;;;207.13;33.30;;;;;;;-1.44;100.00;102485.34;5220119;28;20041;-70
2021/01/09 10:58:26;;;;;;;112.90;28.67;;;;;;;-1.32;100.00;102476.19;5228669;28;20086;-69
2021/01/09 11:00:56;;;;;;;82.68;27.83;;;;;;;-1.29;100.00;102478.72;5219642;28;20033;-69
2021/01/09 11:03:27;;;;;;;99.07;26.38;;;;;;;-1.19;100.00;102481.94;5219975;28;20129;-69
2021/01/09 11:05:58;;;;;;;109.00;26.92;;;;;;;-1.10;100.00;102474.59;5218945;28;20032;-69
2021/01/09 11:08:28;;;;;;;86.20;25.90;;;;;;;-1.11;100.00;102475.47;5214738;28;20375;-69
2021/01/09 11:10:59;;;;;;;140.75;26.60;;;;;;;-1.02;100.00;102473.44;5219966;28;20087;-69
2021/01/09 11:13:29;;;;;;;67.57;24.10;;;;;;;-0.97;100.00;102480.28;5219703;28;20029;-69
2021/01/09 11:16:00;;;;;;;181.23;27.27;;;;;;;-0.93;100.00;102481.06;5219855;28;20040;-68
2021/01/09 11:18:30;;;;;;;161.93;26.42;;;;;;;-0.90;100.00;102481.81;5219167;28;20017;-69
2021/01/09 11:21:01;;;;;;;201.60;27.20;;;;;;;-0.92;100.00;102475.72;5219777;28;20021;-69